createdAt,value
2018-02-16T12:39:24.090Z,3604
2018-02-16T12:40:25.951Z,3656
2018-02-16T12:41:27.806Z,3660
2018-02-16T12:42:29.676Z,3660
2018-02-16T12:43:31.460Z,3672
2018-02-16T12:44:33.256Z,3592
2018-02-16T12:45:35.134Z,3560
2018-02-16T12:46:37.013Z,3544
2018-02-16T12:47:38.895Z,3568
2018-02-16T12:48:53.027Z,3604
2018-02-16T12:49:54.820Z,3592
2018-02-16T12:50:56.625Z,3540
2018-02-16T12:51:58.497Z,3524
2018-02-16T12:53:00.366Z,3524
2018-02-16T12:54:02.271Z,3548
2018-02-16T12:55:04.061Z,3544
2018-02-16T12:56:05.918Z,3516
2018-02-16T12:57:07.779Z,3548
2018-02-16T12:58:22.000Z,3580
2018-02-16T12:59:23.856Z,3580
2018-02-16T13:00:25.727Z,3616
2018-02-16T13:01:27.605Z,3676
2018-02-16T13:02:29.406Z,3704
2018-02-16T13:03:31.226Z,3720
2018-02-16T13:04:33.108Z,3836
2018-02-16T13:05:34.972Z,3896
2018-02-16T13:06:36.857Z,3884
2018-02-16T13:07:51.012Z,3972
2018-02-16T13:08:52.876Z,4140
2018-02-16T13:09:54.728Z,4324
2018-02-16T13:10:56.593Z,4584
2018-02-16T13:11:58.386Z,4728
2018-02-16T13:13:00.188Z,4680
2018-02-16T13:14:02.045Z,4456
2018-02-16T13:15:03.906Z,4416
2018-02-16T13:16:05.785Z,4448
2018-02-16T13:17:19.936Z,4648
2018-02-16T13:18:21.817Z,4640
2018-02-16T13:19:23.698Z,4524
2018-02-16T13:20:25.576Z,4172
2018-02-16T13:21:27.407Z,3716
2018-02-16T13:22:29.242Z,3484
2018-02-16T13:23:31.117Z,3260
2018-02-16T13:24:33.016Z,3228
2018-02-16T13:25:34.905Z,3240
2018-02-16T13:26:49.156Z,3212
2018-02-16T13:27:51.050Z,3224
2018-02-16T13:28:52.910Z,3364
2018-02-16T13:29:54.794Z,3280
2018-02-16T13:30:56.600Z,3264
2018-02-16T13:31:58.401Z,3216
2018-02-16T13:33:00.285Z,3196
2018-02-16T13:34:02.164Z,3168
2018-02-16T13:35:04.035Z,3164
2018-02-16T13:36:18.173Z,3204
2018-02-16T13:37:20.049Z,3264
2018-02-16T13:38:21.896Z,3408
2018-02-16T13:39:23.758Z,3676
2018-02-16T13:40:25.554Z,4000
2018-02-16T13:41:27.377Z,4376
2018-02-16T13:42:29.250Z,4336
2018-02-16T13:43:31.115Z,4164
2018-02-16T13:44:32.998Z,3740
2018-02-16T13:45:47.144Z,3720
2018-02-16T13:46:49.009Z,3816
2018-02-16T13:47:50.871Z,3764
2018-02-16T13:48:52.751Z,3784
2018-02-16T13:49:54.596Z,3808
2018-02-16T13:50:56.561Z,3892
2018-02-16T13:51:58.432Z,4004
2018-02-16T13:53:00.333Z,4168
2018-02-16T13:54:02.214Z,4204
2018-02-16T13:55:16.407Z,4076
2018-02-16T13:56:18.308Z,4084
2018-02-16T13:57:20.166Z,4108
2018-02-16T13:58:22.025Z,4508
2018-02-16T13:59:23.826Z,4968
2018-02-16T14:00:25.621Z,5380
2018-02-16T14:01:27.498Z,5388
2018-02-16T14:02:29.355Z,5124
2018-02-16T14:03:31.227Z,4972
2018-02-16T14:04:45.367Z,4732
2018-02-16T14:05:47.230Z,4840
2018-02-16T14:06:49.188Z,5088
2018-02-16T14:07:51.044Z,4996
2018-02-16T14:08:52.844Z,4524
2018-02-16T14:09:54.642Z,4292
2018-02-16T14:10:56.521Z,4064
2018-02-16T14:11:58.403Z,4232
2018-02-16T14:13:00.274Z,4488
2018-02-16T14:14:14.408Z,4816
2018-02-16T14:15:16.321Z,5080
2018-02-16T14:16:18.200Z,5068
2018-02-16T14:17:20.060Z,5412
2018-02-16T14:18:21.897Z,5792
2018-02-16T14:19:23.724Z,5512
2018-02-16T14:20:25.602Z,4944
2018-02-16T14:21:27.538Z,4580
2018-02-16T14:22:29.374Z,4604
2018-02-16T14:23:43.510Z,4712
2018-02-16T14:24:45.376Z,4928
2018-02-16T14:25:47.293Z,5076
2018-02-16T14:26:49.182Z,5232
2018-02-16T14:27:50.998Z,5320
2018-02-16T14:28:52.841Z,5216
2018-02-16T14:29:54.711Z,5124
2018-02-16T14:30:56.582Z,5532
2018-02-16T14:31:58.443Z,6264
2018-02-16T14:33:12.577Z,6220
2018-02-16T14:34:14.453Z,5836
2018-02-16T14:35:16.318Z,5632
2018-02-16T14:36:18.193Z,5856
2018-02-16T14:37:20.009Z,5848
2018-02-16T14:38:21.795Z,5868
2018-02-16T14:39:23.672Z,5572
2018-02-16T14:40:25.538Z,5224
2018-02-16T14:41:27.423Z,4644
2018-02-16T14:42:41.575Z,4492
2018-02-16T14:43:43.456Z,4240
2018-02-16T14:44:45.337Z,4184
2018-02-16T14:45:47.215Z,4064
2018-02-16T14:46:49.006Z,3792
2018-02-16T14:47:50.811Z,3368
2018-02-16T14:48:52.664Z,3044
2018-02-16T14:49:54.532Z,3028
2018-02-16T14:50:56.400Z,3044
2018-02-16T14:52:10.551Z,3052
2018-02-16T14:53:12.495Z,2884
2018-02-16T14:54:14.394Z,2628
2018-02-16T14:55:16.294Z,2432
2018-02-16T14:56:18.150Z,2320
2018-02-16T14:57:19.974Z,2276
2018-02-16T14:58:21.872Z,2216
2018-02-16T14:59:23.733Z,2180
2018-02-16T15:00:25.598Z,2172
2018-02-16T15:01:39.786Z,2176
2018-02-16T15:02:41.668Z,2176
2018-02-16T15:03:43.548Z,2168
2018-02-16T15:04:45.412Z,2168
2018-02-16T15:05:47.234Z,2188
2018-02-16T15:06:49.050Z,2240
2018-02-16T15:07:50.908Z,2308
2018-02-16T15:08:52.783Z,2368
2018-02-16T15:09:54.651Z,2360
2018-02-16T15:11:08.773Z,2292
2018-02-16T15:12:10.637Z,2180
2018-02-16T15:13:12.512Z,2100
2018-02-16T15:14:14.376Z,2056
2018-02-16T15:15:16.188Z,2016
2018-02-16T15:16:17.990Z,2012
2018-02-16T15:17:19.866Z,2008
2018-02-16T15:18:21.728Z,1992
2018-02-16T15:19:23.638Z,1972
2018-02-16T15:20:37.714Z,1964
2018-02-16T15:21:39.596Z,1932
2018-02-16T15:22:41.432Z,1844
2018-02-16T15:23:43.311Z,1732
2018-02-16T15:24:45.126Z,1656
2018-02-16T15:25:46.943Z,1612
2018-02-16T15:26:48.813Z,1576
2018-02-16T15:27:50.672Z,1540
2018-02-16T15:28:52.531Z,1492
2018-02-16T15:30:06.660Z,1440
2018-02-16T15:31:08.571Z,1408
2018-02-16T15:32:10.399Z,1368
2018-02-16T15:33:12.274Z,1344
2018-02-16T15:34:14.077Z,1320
2018-02-16T15:35:15.893Z,1308
2018-02-16T15:36:17.775Z,1288
2018-02-16T15:37:19.632Z,1232
2018-02-16T15:38:21.498Z,1160
2018-02-16T15:39:35.648Z,1080
2018-02-16T15:40:37.524Z,1028
2018-02-16T15:41:39.428Z,988
2018-02-16T15:42:41.307Z,952
2018-02-16T15:43:43.109Z,924
2018-02-16T15:44:44.917Z,912
2018-02-16T15:45:46.779Z,916
2018-02-16T15:46:48.637Z,924
2018-02-16T15:47:50.519Z,936
2018-02-16T15:49:04.668Z,948
2018-02-16T15:50:06.528Z,944
2018-02-16T15:51:08.402Z,944
2018-02-16T15:52:10.275Z,948
2018-02-16T15:53:12.065Z,940
2018-02-16T15:54:13.861Z,924
2018-02-16T15:55:15.747Z,908
2018-02-16T15:56:17.622Z,896
2018-02-16T15:57:19.502Z,880
2018-02-16T15:58:33.629Z,868
2018-02-16T15:59:35.524Z,852
2018-02-16T16:00:37.393Z,832
2018-02-16T16:01:39.250Z,804
2018-02-16T16:02:41.065Z,764
2018-02-16T16:03:42.883Z,724
2018-02-16T16:04:44.757Z,680
2018-02-16T16:05:46.592Z,640
2018-02-16T16:06:48.394Z,604
2018-02-16T16:08:02.563Z,556
2018-02-16T16:09:04.436Z,520
2018-02-16T16:10:06.296Z,488
2018-02-16T16:11:08.153Z,452
2018-02-16T16:12:09.961Z,420
2018-02-16T16:13:11.762Z,388
2018-02-16T16:14:13.653Z,360
2018-02-16T16:15:15.511Z,332
2018-02-16T16:16:17.387Z,304
2018-02-16T16:17:31.510Z,272
2018-02-16T16:18:33.387Z,248
2018-02-16T16:19:35.277Z,228
2018-02-16T16:20:37.201Z,204
2018-02-16T16:21:39.028Z,184
2018-02-16T16:22:40.816Z,168
2018-02-16T16:23:42.692Z,148
2018-02-16T16:24:44.555Z,132
2018-02-16T16:25:46.445Z,120
2018-02-16T16:27:00.592Z,100
2018-02-16T16:28:02.465Z,88
2018-02-16T16:29:04.320Z,76
2018-02-16T16:30:06.216Z,64
2018-02-16T16:31:08.016Z,56
2018-02-16T16:32:09.829Z,48
2018-02-16T16:33:11.695Z,44
2018-02-16T16:34:13.558Z,36
2018-02-16T16:35:15.450Z,28
2018-02-16T16:36:29.588Z,24
2018-02-16T16:37:31.463Z,20
2018-02-16T16:38:33.335Z,16
2018-02-16T16:39:35.188Z,16
2018-02-16T16:40:36.974Z,12
2018-02-16T16:41:38.767Z,12
2018-02-16T16:42:40.621Z,8
2018-02-16T16:43:42.470Z,8
2018-02-16T16:44:44.328Z,4
2018-02-16T16:45:58.453Z,4
2018-02-16T16:47:00.324Z,4
2018-02-16T16:48:02.179Z,4
2018-02-16T16:49:04.068Z,0
2018-02-16T16:50:05.839Z,4
2018-02-16T16:51:07.643Z,4
2018-02-16T16:52:09.502Z,4
2018-02-16T16:53:11.371Z,0
2018-02-16T16:54:13.227Z,0
2018-02-16T16:55:27.354Z,0
2018-02-16T16:56:29.206Z,0
2018-02-16T16:57:31.065Z,0
2018-02-16T16:58:32.937Z,0
2018-02-16T16:59:34.741Z,0
2018-02-16T17:00:36.526Z,0
2018-02-16T17:01:38.375Z,0
2018-02-16T17:02:40.236Z,0
2018-02-16T17:03:42.109Z,0
2018-02-16T17:04:56.234Z,0
2018-02-16T17:05:58.111Z,0
2018-02-16T17:07:00.026Z,0
2018-02-16T17:08:01.935Z,0
2018-02-16T17:09:03.715Z,0
2018-02-16T17:10:05.569Z,0
2018-02-16T17:11:07.455Z,0
2018-02-16T17:12:09.316Z,0
2018-02-16T17:13:11.193Z,0
2018-02-16T17:14:25.330Z,0
2018-02-16T17:15:27.190Z,0
2018-02-16T17:16:29.069Z,0
2018-02-16T17:17:30.937Z,0
2018-02-16T17:18:32.733Z,0
2018-02-16T17:19:34.541Z,0
2018-02-16T17:20:36.411Z,0
2018-02-16T17:21:38.289Z,0
2018-02-16T17:22:40.165Z,0
2018-02-16T17:23:54.300Z,0
2018-02-16T17:24:56.161Z,0
2018-02-16T17:25:58.038Z,0
2018-02-16T17:26:59.912Z,0
2018-02-16T17:28:01.704Z,0
2018-02-16T17:29:03.559Z,0
2018-02-16T17:30:05.394Z,0
2018-02-16T17:31:07.246Z,0
2018-02-16T17:32:09.105Z,0
2018-02-16T17:33:23.242Z,0
2018-02-16T17:34:25.095Z,0
2018-02-16T17:35:26.956Z,0
2018-02-16T17:36:28.812Z,0
2018-02-16T17:37:30.612Z,0
2018-02-16T17:38:32.416Z,0
2018-02-16T17:39:34.291Z,0
2018-02-16T17:40:36.139Z,0
2018-02-16T17:41:38.002Z,0
2018-02-16T17:42:52.192Z,0
2018-02-16T17:43:54.041Z,0
2018-02-16T17:44:55.906Z,0
2018-02-16T17:45:57.771Z,0
2018-02-16T17:46:59.570Z,0
2018-02-16T17:48:01.378Z,0
2018-02-16T17:49:03.264Z,0
2018-02-16T17:50:05.111Z,0
2018-02-16T17:51:06.988Z,0
2018-02-16T17:52:21.126Z,0
2018-02-16T17:53:22.983Z,0
2018-02-16T17:54:24.844Z,0
2018-02-16T17:55:26.721Z,0
2018-02-16T17:56:28.526Z,0
2018-02-16T17:58:47.029Z,0
2018-02-16T17:59:48.896Z,0
2018-02-16T18:00:50.755Z,0
2018-02-16T18:02:04.945Z,0
2018-02-16T18:03:06.818Z,0
2018-02-16T18:04:08.672Z,0
2018-02-16T18:05:10.522Z,0
2018-02-16T18:06:12.341Z,0
2018-02-16T18:07:14.122Z,0
2018-02-16T18:08:16.016Z,0
2018-02-16T18:09:17.845Z,0
2018-02-16T18:10:19.700Z,0
2018-02-16T18:11:33.824Z,0
2018-02-16T18:12:35.680Z,0
2018-02-16T18:13:37.555Z,0
2018-02-16T18:14:39.404Z,0
2018-02-16T18:15:41.214Z,0
2018-02-16T18:16:43.023Z,0
2018-02-16T18:17:44.870Z,0
2018-02-16T18:18:46.728Z,0
2018-02-16T18:19:48.586Z,0
2018-02-16T18:21:02.730Z,0
2018-02-16T18:22:04.602Z,0
2018-02-16T18:23:06.479Z,0
2018-02-16T18:24:08.348Z,0
2018-02-16T18:25:10.142Z,0
2018-02-16T18:26:11.950Z,0
2018-02-16T18:27:13.818Z,0
2018-02-16T18:28:15.680Z,0
2018-02-16T18:29:17.562Z,0
2018-02-16T18:30:31.705Z,0
2018-02-16T18:31:33.559Z,0
2018-02-16T18:32:35.419Z,0
2018-02-16T18:33:37.286Z,0
2018-02-16T18:34:39.085Z,0
2018-02-16T18:35:40.913Z,0
2018-02-16T18:36:42.768Z,0
2018-02-16T18:37:44.628Z,0
2018-02-16T18:38:46.502Z,0
2018-02-16T18:40:00.616Z,0
2018-02-16T18:41:02.478Z,0
2018-02-16T18:42:04.334Z,0
2018-02-16T18:43:06.188Z,0
2018-02-16T18:44:07.979Z,0
2018-02-16T18:45:09.787Z,0
2018-02-16T18:46:11.650Z,0
2018-02-16T18:47:13.511Z,0
2018-02-16T18:48:15.438Z,0
2018-02-16T18:49:29.599Z,0
2018-02-16T18:50:31.487Z,0
2018-02-16T18:51:33.358Z,0
2018-02-16T18:52:35.215Z,0
2018-02-16T18:53:37.022Z,0
2018-02-16T18:54:38.812Z,0
2018-02-16T18:55:40.666Z,0
2018-02-16T18:56:42.522Z,0
2018-02-16T18:57:44.380Z,0
2018-02-16T18:58:58.503Z,0
2018-02-16T19:00:00.380Z,0
2018-02-16T19:01:02.256Z,0
2018-02-16T19:02:04.114Z,0
2018-02-16T19:03:05.951Z,0
2018-02-16T19:04:07.715Z,0
2018-02-16T19:05:09.589Z,0
2018-02-16T19:06:11.465Z,0
2018-02-16T19:07:13.339Z,0
2018-02-16T19:08:27.481Z,0
2018-02-16T19:09:29.338Z,0
2018-02-16T19:10:31.191Z,0
2018-02-16T19:11:33.061Z,0
2018-02-16T19:12:34.878Z,0
2018-02-16T19:13:36.691Z,0
2018-02-16T19:14:38.574Z,0
2018-02-16T19:15:40.464Z,0
2018-02-16T19:16:42.341Z,0
2018-02-16T19:17:56.528Z,0
2018-02-16T19:18:58.408Z,0
2018-02-16T19:20:00.304Z,0
2018-02-16T19:21:02.187Z,0
2018-02-16T19:22:03.999Z,0
2018-02-16T19:23:05.804Z,0
2018-02-16T19:24:07.698Z,0
2018-02-16T19:25:09.600Z,0
2018-02-16T19:26:11.458Z,0
2018-02-16T19:27:25.628Z,0
2018-02-16T19:28:27.525Z,0
2018-02-16T19:29:29.383Z,0
2018-02-16T19:30:31.302Z,0
2018-02-16T19:31:33.137Z,0
2018-02-16T19:32:34.929Z,0
2018-02-16T19:33:36.867Z,0
2018-02-16T19:34:38.791Z,0
2018-02-16T19:35:40.653Z,0
2018-02-16T19:36:54.864Z,0
2018-02-16T19:37:56.807Z,0
2018-02-16T19:38:58.688Z,0
2018-02-16T19:40:00.604Z,0
2018-02-16T19:41:02.455Z,0
2018-02-16T19:42:04.265Z,0
2018-02-16T19:43:06.198Z,0
2018-02-16T19:44:08.127Z,0
2018-02-16T19:45:09.995Z,0
2018-02-16T19:46:24.260Z,0
2018-02-16T19:47:26.172Z,0
2018-02-16T19:48:28.030Z,0
2018-02-16T19:49:29.945Z,0
2018-02-16T19:50:31.801Z,0
2018-02-16T19:51:33.592Z,0
2018-02-16T19:52:35.571Z,0
2018-02-16T19:53:37.501Z,0
2018-02-16T19:54:39.373Z,0
2018-02-16T19:55:53.562Z,0
2018-02-16T19:56:55.491Z,0
2018-02-16T19:57:57.353Z,0
2018-02-16T19:58:59.289Z,0
2018-02-16T20:00:01.149Z,0
2018-02-16T20:01:02.946Z,0
2018-02-16T20:02:04.925Z,0
2018-02-16T20:03:06.856Z,0
2018-02-16T20:04:08.698Z,0
2018-02-16T20:05:22.946Z,0
2018-02-16T20:06:24.902Z,0
2018-02-16T20:07:26.746Z,0
2018-02-16T20:08:28.696Z,0
2018-02-16T20:09:30.566Z,0
2018-02-16T20:10:32.375Z,0
2018-02-16T20:11:34.363Z,0
2018-02-16T20:12:36.300Z,0
2018-02-16T20:13:38.171Z,0
2018-02-16T20:14:52.430Z,0
2018-02-16T20:15:54.351Z,0
2018-02-16T20:16:56.210Z,0
2018-02-16T20:17:58.115Z,0
2018-02-16T20:18:59.965Z,0
2018-02-16T20:20:01.751Z,0
2018-02-16T20:21:03.681Z,0
2018-02-16T20:22:05.600Z,0
2018-02-16T20:23:07.475Z,0
2018-02-16T20:24:21.642Z,0
2018-02-16T20:25:23.555Z,0
2018-02-16T20:26:25.403Z,0
2018-02-16T20:27:27.293Z,0
2018-02-16T20:28:29.168Z,0
2018-02-16T20:29:30.936Z,0
2018-02-16T20:30:32.839Z,0
2018-02-16T20:31:34.761Z,0
2018-02-16T20:32:36.640Z,0
2018-02-16T20:33:50.815Z,0
2018-02-16T20:34:52.721Z,0
2018-02-16T20:35:54.578Z,0
2018-02-16T20:36:56.474Z,0
